Astoria Regional Airport
KAST : now visible

Airfield :











YOU CAN JOIN US ON...

 
LOGIN :

Register | Disclaimer

   EN    FR    IT 

 









Legend :    VFR   Marginal VFR   IFR   Intensive IFR   Very Intensive IFR
Visi :
Ceiling :
>= 8 km
>= 3000ft
5 to 8 km
1000 to 3000 ft
1500m to 5 km
500 to 1000 ft
800 to 1500m
200 to 500 ft
< 800m
< 200 ft
Symbols :   Thunderstorms  Fog  Heavy snow  Heavy precipitations  Wind > 20 kt






- Airport Elevation : 15 ft


KAST - Astoria Regional

CURRENT METAR :
  • 231955Z AUTO 22011G19KT 7SM -RA SCT025 BKN040 OVC070 06/03 A2996 RMK AO2 SLP145 P0001 T00610033

EXPIRED METARs :
  • 231925Z AUTO 22006KT 10SM -RA FEW020 BKN026 OVC035 06/03 A2996 RMK AO2 P0001 T00560033
  • 231855Z AUTO 15008KT 7SM -RA SCT028 BKN038 OVC047 05/03 A2996 RMK AO2 RAE18B34 SLP143 P0003 T00500028
  • 231818Z AUTO 19004KT 10SM FEW014 BKN036 OVC050 05/03 A2996 RMK AO2 RAE18 P0003 T00500028
  • 231805Z AUTO 23010G21KT 4SM -RA BR FEW011 BKN016 OVC023 05/03 A2996 RMK AO2 P0002 T00500028
  • 231755Z AUTO 25013G20KT 210V270 2 1/2SM RA BR BKN015 OVC021 05/03 A2996 RMK AO2 PK WND 25026/1702 RAB02 SLP145 P0020 60024 T00500033 10078 20039 53015
  • 231722Z AUTO 24008G16KT 3SM RA BR BKN017 OVC022 05/03 A2993 RMK AO2 PK WND 25026/1702 RAB02 P0010 T00500028
  • 231707Z AUTO 23011G26KT 1 3/4SM +RA BR FEW013 OVC022 04/02 A2993 RMK AO2 PK WND 25026/1702 RAB02 P0000 T00440022

TAF KAST
Valid from the 23 at 18:00 until the 24 at 18:00 UTC


231738Z 2318/2418 23012G20KT 3SM RA SCT015 BKN025 OVC040
FM232200 25015G23KT P6SM -SHRA SCT020 BKN035 BKN050
FM240300 25009KT P6SM VCSH SCT025 BKN050
KZSE FIR / North America



MET'MAP, your aeronautical weather chart ! - Copyright ORBIFLY December 2007 - Disclaimer

ORBIFLY MET'MAP TEAM :

Programming & Development : Alexandra Zaïnal
Original concept : Baudouin d'Aumeries
Technical & hardware support : Manuel Goepfert
Assistance : Marc-Olivier Méhu




SOURCES & CREDITS :

   NOAA       Earth
Advisory